sensor_id;sensor_type;location;lat;lon;timestamp;temperature;humidity
76787;DHT22;65739;51.482;5.702;2023-02-14T00:00:52;1.90;99.90
76787;DHT22;65739;51.482;5.702;2023-02-14T00:04:10;1.90;99.90
76787;DHT22;65739;51.482;5.702;2023-02-14T00:13:34;1.80;99.90
76787;DHT22;65739;51.482;5.702;2023-02-14T00:16:00;1.80;99.90
76787;DHT22;65739;51.482;5.702;2023-02-14T00:22:13;1.70;99.90
76787;DHT22;65739;51.482;5.702;2023-02-14T00:25:00;1.70;99.90
76787;DHT22;65739;51.482;5.702;2023-02-14T00:27:46;1.70;99.90
76787;DHT22;65739;51.482;5.702;2023-02-14T01:01:01;1.40;99.90
76787;DHT22;65739;51.482;5.702;2023-02-14T01:17:19;1.40;99.90
76787;DHT22;65739;51.482;5.702;2023-02-14T01:23:05;1.30;99.90
76787;DHT22;65739;51.482;5.702;2023-02-14T01:42:28;1.20;99.90
76787;DHT22;65739;51.482;5.702;2023-02-14T01:45:25;1.10;99.90
76787;DHT22;65739;51.482;5.702;2023-02-14T01:55:09;1.00;99.90
76787;DHT22;65739;51.482;5.702;2023-02-14T02:11:25;0.90;99.90
76787;DHT22;65739;51.482;5.702;2023-02-14T02:20:46;0.80;99.90
76787;DHT22;65739;51.482;5.702;2023-02-14T02:33:18;0.90;99.90
76787;DHT22;65739;51.482;5.702;2023-02-14T02:50:24;0.70;99.90
76787;DHT22;65739;51.482;5.702;2023-02-14T02:57:14;0.70;99.90
76787;DHT22;65739;51.482;5.702;2023-02-14T03:04:12;0.70;99.90
76787;DHT22;65739;51.482;5.702;2023-02-14T03:10:31;0.60;99.90
76787;DHT22;65739;51.482;5.702;2023-02-14T03:17:15;0.60;99.90
76787;DHT22;65739;51.482;5.702;2023-02-14T03:31:29;0.60;99.90
76787;DHT22;65739;51.482;5.702;2023-02-14T03:37:10;0.60;99.90
76787;DHT22;65739;51.482;5.702;2023-02-14T03:43:48;0.60;99.90
76787;DHT22;65739;51.482;5.702;2023-02-14T03:50:01;0.60;99.90
76787;DHT22;65739;51.482;5.702;2023-02-14T03:53:00;0.50;99.90
76787;DHT22;65739;51.482;5.702;2023-02-14T03:58:57;0.50;99.90
76787;DHT22;65739;51.482;5.702;2023-02-14T04:05:00;0.60;99.90
76787;DHT22;65739;51.482;5.702;2023-02-14T04:10:48;0.60;99.90
76787;DHT22;65739;51.482;5.702;2023-02-14T04:13:17;0.60;99.90
76787;DHT22;65739;51.482;5.702;2023-02-14T04:20:04;0.70;99.90
76787;DHT22;65739;51.482;5.702;2023-02-14T04:26:15;0.70;99.90
76787;DHT22;65739;51.482;5.702;2023-02-14T04:29:53;0.70;99.90
76787;DHT22;65739;51.482;5.702;2023-02-14T04:42:48;0.60;99.90
76787;DHT22;65739;51.482;5.702;2023-02-14T04:45:48;0.70;99.90
76787;DHT22;65739;51.482;5.702;2023-02-14T04:48:56;0.70;99.90
76787;DHT22;65739;51.482;5.702;2023-02-14T04:52:29;0.60;99.90
76787;DHT22;65739;51.482;5.702;2023-02-14T05:00:01;0.50;99.90
76787;DHT22;65739;51.482;5.702;2023-02-14T05:02:38;0.40;99.90
76787;DHT22;65739;51.482;5.702;2023-02-14T05:11:54;0.30;99.90
76787;DHT22;65739;51.482;5.702;2023-02-14T05:15:01;0.30;99.90
76787;DHT22;65739;51.482;5.702;2023-02-14T05:18:16;0.30;99.90
76787;DHT22;65739;51.482;5.702;2023-02-14T05:21:24;0.20;99.90
76787;DHT22;65739;51.482;5.702;2023-02-14T05:24:32;0.20;99.90
76787;DHT22;65739;51.482;5.702;2023-02-14T05:27:01;0.20;99.90
76787;DHT22;65739;51.482;5.702;2023-02-14T05:35:54;0.10;99.90
76787;DHT22;65739;51.482;5.702;2023-02-14T05:46:12;0.00;99.90
76787;DHT22;65739;51.482;5.702;2023-02-14T05:52:26;0.00;99.90
76787;DHT22;65739;51.482;5.702;2023-02-14T05:58:35;0.00;99.90
76787;DHT22;65739;51.482;5.702;2023-02-14T06:05:00;-0.10;99.90
76787;DHT22;65739;51.482;5.702;2023-02-14T06:07:49;-0.10;99.90
76787;DHT22;65739;51.482;5.702;2023-02-14T06:10:49;-0.10;99.90
76787;DHT22;65739;51.482;5.702;2023-02-14T06:13:47;-0.20;99.90
76787;DHT22;65739;51.482;5.702;2023-02-14T06:16:16;-0.10;99.90
76787;DHT22;65739;51.482;5.702;2023-02-14T06:19:11;-0.10;99.90
76787;DHT22;65739;51.482;5.702;2023-02-14T06:21:50;-0.10;99.90
76787;DHT22;65739;51.482;5.702;2023-02-14T06:24:18;-0.10;99.90
76787;DHT22;65739;51.482;5.702;2023-02-14T06:26:57;-0.10;99.90
76787;DHT22;65739;51.482;5.702;2023-02-14T06:29:34;-0.20;99.90
76787;DHT22;65739;51.482;5.702;2023-02-14T06:32:00;-0.20;99.90
76787;DHT22;65739;51.482;5.702;2023-02-14T06:34:30;-0.10;99.90
76787;DHT22;65739;51.482;5.702;2023-02-14T06:40:10;-0.20;99.90
76787;DHT22;65739;51.482;5.702;2023-02-14T06:52:43;-0.20;99.90
76787;DHT22;65739;51.482;5.702;2023-02-14T06:55:31;-0.20;99.90
76787;DHT22;65739;51.482;5.702;2023-02-14T06:57:57;-0.20;99.90
76787;DHT22;65739;51.482;5.702;2023-02-14T07:00:40;-0.20;99.90
76787;DHT22;65739;51.482;5.702;2023-02-14T07:03:09;-0.20;99.90
76787;DHT22;65739;51.482;5.702;2023-02-14T09:54:29;7.40;99.90
76787;DHT22;65739;51.482;5.702;2023-02-14T10:06:59;8.00;99.90
76787;DHT22;65739;51.482;5.702;2023-02-14T10:10:28;8.20;99.90
76787;DHT22;65739;51.482;5.702;2023-02-14T10:16:45;8.60;99.90
76787;DHT22;65739;51.482;5.702;2023-02-14T10:19:42;8.70;99.90
76787;DHT22;65739;51.482;5.702;2023-02-14T10:23:19;9.00;99.90
76787;DHT22;65739;51.482;5.702;2023-02-14T10:36:03;9.80;99.90
76787;DHT22;65739;51.482;5.702;2023-02-14T10:55:45;10.60;99.90
76787;DHT22;65739;51.482;5.702;2023-02-14T11:01:30;11.00;99.90
76787;DHT22;65739;51.482;5.702;2023-02-14T11:04:05;11.20;99.90
76787;DHT22;65739;51.482;5.702;2023-02-14T11:06:35;11.10;99.90
76787;DHT22;65739;51.482;5.702;2023-02-14T11:09:15;11.20;99.90
76787;DHT22;65739;51.482;5.702;2023-02-14T11:17:50;11.70;99.90
76787;DHT22;65739;51.482;5.702;2023-02-14T11:20:39;12.00;99.90
76787;DHT22;65739;51.482;5.702;2023-02-14T11:23:22;11.90;99.90
76787;DHT22;65739;51.482;5.702;2023-02-14T11:26:01;12.10;99.90
76787;DHT22;65739;51.482;5.702;2023-02-14T11:31:27;12.70;99.90
76787;DHT22;65739;51.482;5.702;2023-02-14T11:33:54;12.50;99.90
76787;DHT22;65739;51.482;5.702;2023-02-14T11:36:20;12.50;99.90
76787;DHT22;65739;51.482;5.702;2023-02-14T11:39:28;12.80;99.90
76787;DHT22;65739;51.482;5.702;2023-02-14T11:42:01;13.10;99.90
76787;DHT22;65739;51.482;5.702;2023-02-14T11:44:29;12.90;99.90
76787;DHT22;65739;51.482;5.702;2023-02-14T11:47:24;13.30;99.90
76787;DHT22;65739;51.482;5.702;2023-02-14T11:49:59;13.50;99.90
76787;DHT22;65739;51.482;5.702;2023-02-14T11:52:46;13.70;99.90
76787;DHT22;65739;51.482;5.702;2023-02-14T11:55:25;14.10;99.90
76787;DHT22;65739;51.482;5.702;2023-02-14T11:57:51;14.10;99.90
76787;DHT22;65739;51.482;5.702;2023-02-14T12:00:26;14.30;99.90
76787;DHT22;65739;51.482;5.702;2023-02-14T12:02:52;14.40;99.90
76787;DHT22;65739;51.482;5.702;2023-02-14T12:08:06;14.30;99.90
76787;DHT22;65739;51.482;5.702;2023-02-14T12:10:36;14.30;99.90
76787;DHT22;65739;51.482;5.702;2023-02-14T12:15:51;14.70;99.90
76787;DHT22;65739;51.482;5.702;2023-02-14T12:21:27;14.60;99.90
76787;DHT22;65739;51.482;5.702;2023-02-14T12:24:14;14.80;99.90
76787;DHT22;65739;51.482;5.702;2023-02-14T12:26:48;14.80;99.90
76787;DHT22;65739;51.482;5.702;2023-02-14T12:29:43;15.10;99.90
76787;DHT22;65739;51.482;5.702;2023-02-14T12:32:27;15.00;99.90
76787;DHT22;65739;51.482;5.702;2023-02-14T12:35:05;14.90;99.90
76787;DHT22;65739;51.482;5.702;2023-02-14T12:38:07;15.00;99.90
76787;DHT22;65739;51.482;5.702;2023-02-14T12:41:00;15.00;99.90
76787;DHT22;65739;51.482;5.702;2023-02-14T12:43:38;14.90;99.90
76787;DHT22;65739;51.482;5.702;2023-02-14T12:49:21;15.30;99.90
76787;DHT22;65739;51.482;5.702;2023-02-14T12:54:35;15.60;99.90
76787;DHT22;65739;51.482;5.702;2023-02-14T13:11:24;16.10;99.90
76787;DHT22;65739;51.482;5.702;2023-02-14T13:14:01;15.60;99.90
76787;DHT22;65739;51.482;5.702;2023-02-14T13:16:47;16.10;99.90
76787;DHT22;65739;51.482;5.702;2023-02-14T13:19:34;16.40;99.90
76787;DHT22;65739;51.482;5.702;2023-02-14T13:28:23;16.50;99.90
76787;DHT22;65739;51.482;5.702;2023-02-14T13:31:10;16.50;99.90
76787;DHT22;65739;51.482;5.702;2023-02-14T13:33:40;16.10;99.90
76787;DHT22;65739;51.482;5.702;2023-02-14T13:36:11;15.90;99.90
76787;DHT22;65739;51.482;5.702;2023-02-14T13:38:42;15.70;99.90
76787;DHT22;65739;51.482;5.702;2023-02-14T13:41:11;15.50;99.90
76787;DHT22;65739;51.482;5.702;2023-02-14T13:43:56;15.70;99.90
76787;DHT22;65739;51.482;5.702;2023-02-14T13:46:45;15.40;99.90
76787;DHT22;65739;51.482;5.702;2023-02-14T13:51:48;15.20;99.90
76787;DHT22;65739;51.482;5.702;2023-02-14T13:57:00;15.20;99.90
76787;DHT22;65739;51.482;5.702;2023-02-14T13:59:34;15.30;99.90
76787;DHT22;65739;51.482;5.702;2023-02-14T14:02:29;15.30;99.90
76787;DHT22;65739;51.482;5.702;2023-02-14T14:04:55;15.00;99.90
76787;DHT22;65739;51.482;5.702;2023-02-14T14:07:28;15.10;99.90
76787;DHT22;65739;51.482;5.702;2023-02-14T14:09:59;15.20;99.90
76787;DHT22;65739;51.482;5.702;2023-02-14T14:17:45;14.60;99.90
76787;DHT22;65739;51.482;5.702;2023-02-14T14:22:56;14.90;99.90
76787;DHT22;65739;51.482;5.702;2023-02-14T14:25:36;14.60;99.90
76787;DHT22;65739;51.482;5.702;2023-02-14T14:28:19;14.50;99.90
76787;DHT22;65739;51.482;5.702;2023-02-14T14:30:48;14.60;99.90
76787;DHT22;65739;51.482;5.702;2023-02-14T14:36:01;14.50;99.90
76787;DHT22;65739;51.482;5.702;2023-02-14T14:38:28;14.30;99.90
76787;DHT22;65739;51.482;5.702;2023-02-14T14:40:54;14.40;99.90
76787;DHT22;65739;51.482;5.702;2023-02-14T14:43:29;14.20;99.90
76787;DHT22;65739;51.482;5.702;2023-02-14T14:45:57;14.00;99.90
76787;DHT22;65739;51.482;5.702;2023-02-14T14:51:21;14.20;99.90
76787;DHT22;65739;51.482;5.702;2023-02-14T14:53:53;14.30;99.90
76787;DHT22;65739;51.482;5.702;2023-02-14T14:56:22;14.10;99.90
76787;DHT22;65739;51.482;5.702;2023-02-14T14:58:48;14.20;99.90
76787;DHT22;65739;51.482;5.702;2023-02-14T15:01:34;14.20;99.90
76787;DHT22;65739;51.482;5.702;2023-02-14T15:04:18;14.40;99.90
76787;DHT22;65739;51.482;5.702;2023-02-14T15:06:45;14.30;99.90
76787;DHT22;65739;51.482;5.702;2023-02-14T15:09:20;14.30;99.90
76787;DHT22;65739;51.482;5.702;2023-02-14T15:11:47;14.30;99.90
76787;DHT22;65739;51.482;5.702;2023-02-14T15:14:35;14.40;99.90
76787;DHT22;65739;51.482;5.702;2023-02-14T15:17:10;14.20;99.90
76787;DHT22;65739;51.482;5.702;2023-02-14T15:19:42;14.20;99.90
76787;DHT22;65739;51.482;5.702;2023-02-14T15:22:24;14.10;99.90
76787;DHT22;65739;51.482;5.702;2023-02-14T15:24:50;14.00;99.90
76787;DHT22;65739;51.482;5.702;2023-02-14T15:27:23;14.10;99.90
76787;DHT22;65739;51.482;5.702;2023-02-14T15:29:53;14.20;99.90
76787;DHT22;65739;51.482;5.702;2023-02-14T15:32:19;14.20;99.90
76787;DHT22;65739;51.482;5.702;2023-02-14T15:34:45;14.20;99.90
76787;DHT22;65739;51.482;5.702;2023-02-14T15:37:12;14.20;99.90
76787;DHT22;65739;51.482;5.702;2023-02-14T15:39:45;14.10;99.90
76787;DHT22;65739;51.482;5.702;2023-02-14T15:42:28;14.00;99.90
76787;DHT22;65739;51.482;5.702;2023-02-14T15:45:32;14.10;99.90
76787;DHT22;65739;51.482;5.702;2023-02-14T15:48:32;13.80;99.90
76787;DHT22;65739;51.482;5.702;2023-02-14T15:51:00;13.90;99.90
76787;DHT22;65739;51.482;5.702;2023-02-14T15:53:40;13.90;99.90
76787;DHT22;65739;51.482;5.702;2023-02-14T15:56:53;13.80;99.90
76787;DHT22;65739;51.482;5.702;2023-02-14T15:59:21;13.50;99.90
76787;DHT22;65739;51.482;5.702;2023-02-14T16:01:53;13.10;99.90
76787;DHT22;65739;51.482;5.702;2023-02-14T16:04:28;12.80;99.90
76787;DHT22;65739;51.482;5.702;2023-02-14T16:07:18;12.40;99.90
76787;DHT22;65739;51.482;5.702;2023-02-14T16:09:48;12.10;99.90
76787;DHT22;65739;51.482;5.702;2023-02-14T16:12:31;11.90;99.90
76787;DHT22;65739;51.482;5.702;2023-02-14T16:15:23;11.60;99.90
76787;DHT22;65739;51.482;5.702;2023-02-14T16:17:49;11.30;99.90
76787;DHT22;65739;51.482;5.702;2023-02-14T16:23:17;10.90;99.90
76787;DHT22;65739;51.482;5.702;2023-02-14T16:25:43;10.80;99.90
76787;DHT22;65739;51.482;5.702;2023-02-14T16:28:09;10.60;99.90
76787;DHT22;65739;51.482;5.702;2023-02-14T16:30:36;10.40;99.90
76787;DHT22;65739;51.482;5.702;2023-02-14T16:33:02;10.30;99.90
76787;DHT22;65739;51.482;5.702;2023-02-14T16:35:30;10.10;99.90
76787;DHT22;65739;51.482;5.702;2023-02-14T16:37:59;9.90;99.90
76787;DHT22;65739;51.482;5.702;2023-02-14T16:40:27;9.80;99.90
76787;DHT22;65739;51.482;5.702;2023-02-14T16:42:53;9.70;99.90
76787;DHT22;65739;51.482;5.702;2023-02-14T16:45:19;9.50;99.90
76787;DHT22;65739;51.482;5.702;2023-02-14T16:47:46;9.40;99.90
76787;DHT22;65739;51.482;5.702;2023-02-14T16:50:15;9.30;99.90
76787;DHT22;65739;51.482;5.702;2023-02-14T16:52:51;9.20;99.90
76787;DHT22;65739;51.482;5.702;2023-02-14T16:55:24;9.00;99.90
76787;DHT22;65739;51.482;5.702;2023-02-14T16:57:57;8.90;99.90
76787;DHT22;65739;51.482;5.702;2023-02-14T17:00:26;8.80;99.90
76787;DHT22;65739;51.482;5.702;2023-02-14T17:03:12;8.60;99.90
76787;DHT22;65739;51.482;5.702;2023-02-14T17:05:38;8.40;99.90
76787;DHT22;65739;51.482;5.702;2023-02-14T17:08:08;8.30;99.90
76787;DHT22;65739;51.482;5.702;2023-02-14T17:13:57;8.10;99.90
76787;DHT22;65739;51.482;5.702;2023-02-14T17:16:28;8.00;99.90
76787;DHT22;65739;51.482;5.702;2023-02-14T17:18:54;7.80;99.90
76787;DHT22;65739;51.482;5.702;2023-02-14T17:21:55;7.70;99.90
76787;DHT22;65739;51.482;5.702;2023-02-14T17:24:21;7.60;99.90
76787;DHT22;65739;51.482;5.702;2023-02-14T17:26:46;7.60;99.90
76787;DHT22;65739;51.482;5.702;2023-02-14T17:29:12;7.50;99.90
76787;DHT22;65739;51.482;5.702;2023-02-14T17:31:40;7.40;99.90
76787;DHT22;65739;51.482;5.702;2023-02-14T17:34:06;7.30;99.90
76787;DHT22;65739;51.482;5.702;2023-02-14T17:36:33;7.30;99.90
76787;DHT22;65739;51.482;5.702;2023-02-14T17:39:01;7.20;99.90
76787;DHT22;65739;51.482;5.702;2023-02-14T17:41:30;7.10;99.90
76787;DHT22;65739;51.482;5.702;2023-02-14T17:43:56;7.10;99.90
76787;DHT22;65739;51.482;5.702;2023-02-14T17:46:29;6.90;99.90
76787;DHT22;65739;51.482;5.702;2023-02-14T17:48:55;6.80;99.90
76787;DHT22;65739;51.482;5.702;2023-02-14T17:51:33;6.80;99.90
76787;DHT22;65739;51.482;5.702;2023-02-14T17:53:59;6.70;99.90
76787;DHT22;65739;51.482;5.702;2023-02-14T17:56:34;6.60;99.90
76787;DHT22;65739;51.482;5.702;2023-02-14T17:59:04;6.50;99.90
76787;DHT22;65739;51.482;5.702;2023-02-14T18:08:08;6.30;99.90
76787;DHT22;65739;51.482;5.702;2023-02-14T18:11:09;6.30;99.90
76787;DHT22;65739;51.482;5.702;2023-02-14T18:16:56;6.10;99.90
76787;DHT22;65739;51.482;5.702;2023-02-14T18:19:26;6.10;99.90
76787;DHT22;65739;51.482;5.702;2023-02-14T18:21:52;5.90;99.90
76787;DHT22;65739;51.482;5.702;2023-02-14T18:24:18;5.90;99.90
76787;DHT22;65739;51.482;5.702;2023-02-14T18:26:52;5.80;99.90
76787;DHT22;65739;51.482;5.702;2023-02-14T18:29:20;5.80;99.90
76787;DHT22;65739;51.482;5.702;2023-02-14T18:31:51;5.80;99.90
76787;DHT22;65739;51.482;5.702;2023-02-14T18:34:22;5.70;99.90
76787;DHT22;65739;51.482;5.702;2023-02-14T18:36:50;5.60;99.90
76787;DHT22;65739;51.482;5.702;2023-02-14T18:39:21;5.60;99.90
76787;DHT22;65739;51.482;5.702;2023-02-14T18:41:47;5.50;99.90
76787;DHT22;65739;51.482;5.702;2023-02-14T18:44:16;5.50;99.90
76787;DHT22;65739;51.482;5.702;2023-02-14T18:46:41;5.40;99.90
76787;DHT22;65739;51.482;5.702;2023-02-14T18:49:07;5.40;99.90
76787;DHT22;65739;51.482;5.702;2023-02-14T18:51:35;5.30;99.90
76787;DHT22;65739;51.482;5.702;2023-02-14T18:54:02;5.20;99.90
76787;DHT22;65739;51.482;5.702;2023-02-14T18:56:36;5.20;99.90
76787;DHT22;65739;51.482;5.702;2023-02-14T18:59:04;5.10;99.90
76787;DHT22;65739;51.482;5.702;2023-02-14T19:01:35;5.10;99.90
76787;DHT22;65739;51.482;5.702;2023-02-14T19:04:02;5.00;99.90
76787;DHT22;65739;51.482;5.702;2023-02-14T19:06:29;5.00;99.90
76787;DHT22;65739;51.482;5.702;2023-02-14T19:09:19;4.90;99.90
76787;DHT22;65739;51.482;5.702;2023-02-14T19:11:54;4.90;99.90
76787;DHT22;65739;51.482;5.702;2023-02-14T19:14:24;4.80;99.90
76787;DHT22;65739;51.482;5.702;2023-02-14T19:16:50;4.80;99.90
76787;DHT22;65739;51.482;5.702;2023-02-14T19:19:18;4.70;99.90
76787;DHT22;65739;51.482;5.702;2023-02-14T19:21:45;4.70;99.90
76787;DHT22;65739;51.482;5.702;2023-02-14T19:24:11;4.60;99.90
76787;DHT22;65739;51.482;5.702;2023-02-14T19:26:38;4.60;99.90
76787;DHT22;65739;51.482;5.702;2023-02-14T19:29:15;4.50;99.90
76787;DHT22;65739;51.482;5.702;2023-02-14T19:31:44;4.50;99.90
76787;DHT22;65739;51.482;5.702;2023-02-14T19:36:47;4.40;99.90
76787;DHT22;65739;51.482;5.702;2023-02-14T19:39:24;4.40;99.90
76787;DHT22;65739;51.482;5.702;2023-02-14T19:41:54;4.40;99.90
76787;DHT22;65739;51.482;5.702;2023-02-14T19:44:20;4.30;99.90
76787;DHT22;65739;51.482;5.702;2023-02-14T19:46:46;4.30;99.90
76787;DHT22;65739;51.482;5.702;2023-02-14T19:49:17;4.30;99.90
76787;DHT22;65739;51.482;5.702;2023-02-14T19:51:45;4.20;99.90
76787;DHT22;65739;51.482;5.702;2023-02-14T19:54:16;4.20;99.90
76787;DHT22;65739;51.482;5.702;2023-02-14T19:56:54;4.10;99.90
76787;DHT22;65739;51.482;5.702;2023-02-14T19:59:20;4.10;99.90
76787;DHT22;65739;51.482;5.702;2023-02-14T20:02:10;4.10;99.90
76787;DHT22;65739;51.482;5.702;2023-02-14T20:04:39;4.10;99.90
76787;DHT22;65739;51.482;5.702;2023-02-14T20:07:08;4.00;99.90
76787;DHT22;65739;51.482;5.702;2023-02-14T20:09:34;4.00;99.90
76787;DHT22;65739;51.482;5.702;2023-02-14T20:12:04;3.90;99.90
76787;DHT22;65739;51.482;5.702;2023-02-14T20:14:32;3.90;99.90
76787;DHT22;65739;51.482;5.702;2023-02-14T20:17:02;3.90;99.90
76787;DHT22;65739;51.482;5.702;2023-02-14T20:19:31;3.80;99.90
76787;DHT22;65739;51.482;5.702;2023-02-14T20:21:58;3.80;99.90
76787;DHT22;65739;51.482;5.702;2023-02-14T20:24:27;3.80;99.90
76787;DHT22;65739;51.482;5.702;2023-02-14T20:27:04;3.80;99.90
76787;DHT22;65739;51.482;5.702;2023-02-14T20:29:35;3.70;99.90
76787;DHT22;65739;51.482;5.702;2023-02-14T20:32:02;3.70;99.90
76787;DHT22;65739;51.482;5.702;2023-02-14T20:34:29;3.70;99.90
76787;DHT22;65739;51.482;5.702;2023-02-14T20:36:55;3.60;99.90
76787;DHT22;65739;51.482;5.702;2023-02-14T20:39:27;3.60;99.90
76787;DHT22;65739;51.482;5.702;2023-02-14T20:41:53;3.50;99.90
76787;DHT22;65739;51.482;5.702;2023-02-14T20:44:25;3.40;99.90
76787;DHT22;65739;51.482;5.702;2023-02-14T20:46:53;3.40;99.90
76787;DHT22;65739;51.482;5.702;2023-02-14T20:49:24;3.40;99.90
76787;DHT22;65739;51.482;5.702;2023-02-14T20:52:10;3.40;99.90
76787;DHT22;65739;51.482;5.702;2023-02-14T20:54:43;3.30;99.90
76787;DHT22;65739;51.482;5.702;2023-02-14T21:00:37;3.20;99.90
76787;DHT22;65739;51.482;5.702;2023-02-14T21:03:16;3.10;99.90
76787;DHT22;65739;51.482;5.702;2023-02-14T21:08:39;3.10;99.90
76787;DHT22;65739;51.482;5.702;2023-02-14T21:14:19;3.00;99.90
76787;DHT22;65739;51.482;5.702;2023-02-14T21:27:40;2.80;99.90
76787;DHT22;65739;51.482;5.702;2023-02-14T21:30:35;2.80;99.90
76787;DHT22;65739;51.482;5.702;2023-02-14T21:33:06;2.70;99.90
76787;DHT22;65739;51.482;5.702;2023-02-14T21:36:15;2.70;99.90
76787;DHT22;65739;51.482;5.702;2023-02-14T21:39:20;2.60;99.90
76787;DHT22;65739;51.482;5.702;2023-02-14T21:46:15;2.60;99.90
76787;DHT22;65739;51.482;5.702;2023-02-14T21:55:19;2.40;99.90
76787;DHT22;65739;51.482;5.702;2023-02-14T22:01:32;2.30;99.90
76787;DHT22;65739;51.482;5.702;2023-02-14T22:04:08;2.30;99.90
76787;DHT22;65739;51.482;5.702;2023-02-14T22:07:00;2.30;99.90
76787;DHT22;65739;51.482;5.702;2023-02-14T22:09:46;2.30;99.90
76787;DHT22;65739;51.482;5.702;2023-02-14T22:12:54;2.20;99.90
76787;DHT22;65739;51.482;5.702;2023-02-14T22:15:32;2.20;99.90
76787;DHT22;65739;51.482;5.702;2023-02-14T22:18:17;2.20;99.90
76787;DHT22;65739;51.482;5.702;2023-02-14T22:21:24;2.10;99.90
76787;DHT22;65739;51.482;5.702;2023-02-14T22:24:16;2.10;99.90
76787;DHT22;65739;51.482;5.702;2023-02-14T22:26:58;2.10;99.90
76787;DHT22;65739;51.482;5.702;2023-02-14T22:29:44;2.00;99.90
76787;DHT22;65739;51.482;5.702;2023-02-14T22:39:48;1.90;99.90
76787;DHT22;65739;51.482;5.702;2023-02-14T23:00:30;1.70;99.90
76787;DHT22;65739;51.482;5.702;2023-02-14T23:13:30;1.60;99.90
76787;DHT22;65739;51.482;5.702;2023-02-14T23:16:18;1.50;99.90
76787;DHT22;65739;51.482;5.702;2023-02-14T23:23:19;1.50;99.90
76787;DHT22;65739;51.482;5.702;2023-02-14T23:26:12;1.50;99.90
76787;DHT22;65739;51.482;5.702;2023-02-14T23:29:11;1.40;99.90
76787;DHT22;65739;51.482;5.702;2023-02-14T23:36:09;1.40;99.90
76787;DHT22;65739;51.482;5.702;2023-02-14T23:42:38;1.40;99.90
